createdAt,value
2019-05-29T00:02:57.215Z,38.56
2019-05-29T00:08:12.360Z,38.52
2019-05-29T00:10:42.545Z,38.77
2019-05-29T00:13:10.574Z,38.81
2019-05-29T00:15:38.482Z,38.39
2019-05-29T00:18:06.527Z,38.47
2019-05-29T00:20:34.718Z,38.73
2019-05-29T00:23:03.072Z,38.31
2019-05-29T00:25:31.021Z,37.90
2019-05-29T00:27:59.083Z,38.68
2019-05-29T00:30:27.050Z,38.83
2019-05-29T00:32:55.113Z,38.55
2019-05-29T00:35:23.242Z,38.61
2019-05-29T00:37:51.465Z,38.58
2019-05-29T00:42:53.510Z,38.66
2019-05-29T00:45:40.442Z,38.71
2019-05-29T00:48:09.579Z,38.78
2019-05-29T00:50:38.206Z,38.86
2019-05-29T00:53:06.184Z,38.64
2019-05-29T00:55:34.377Z,38.57
2019-05-29T00:58:02.487Z,38.70
2019-05-29T01:00:30.949Z,38.06
2019-05-29T01:03:17.980Z,38.70
2019-05-29T01:05:45.934Z,38.58
2019-05-29T01:08:33.120Z,38.56
2019-05-29T01:11:01.078Z,38.66
2019-05-29T01:13:29.144Z,38.71
2019-05-29T01:18:44.050Z,38.69
2019-05-29T01:21:12.120Z,37.95
2019-05-29T01:23:40.096Z,38.82
2019-05-29T01:28:55.251Z,38.69
2019-05-29T01:31:23.613Z,38.54
2019-05-29T01:36:40.067Z,38.25
2019-05-29T01:39:08.365Z,38.37
2019-05-29T01:41:36.468Z,38.49
2019-05-29T01:44:04.497Z,38.31
2019-05-29T01:46:32.558Z,38.44
2019-05-29T01:49:00.670Z,38.68
2019-05-29T01:51:47.810Z,38.61
2019-05-29T01:54:15.821Z,38.58
2019-05-29T01:56:43.932Z,38.90
2019-05-29T01:59:11.955Z,38.92
2019-05-29T02:01:40.172Z,38.45
2019-05-29T02:04:08.262Z,38.67
2019-05-29T02:06:55.138Z,38.52
2019-05-29T02:09:24.270Z,38.53
2019-05-29T02:11:53.163Z,38.60
2019-05-29T02:14:22.625Z,38.97
2019-05-29T02:16:51.088Z,38.62
2019-05-29T02:19:19.980Z,38.57
2019-05-29T02:21:48.032Z,38.26
2019-05-29T02:24:17.006Z,38.56
2019-05-29T02:26:45.143Z,38.92
2019-05-29T02:29:13.126Z,38.87
2019-05-29T02:31:41.152Z,38.56
2019-05-29T02:34:09.252Z,38.76
2019-05-29T02:36:37.182Z,38.30
2019-05-29T02:39:05.954Z,39.17
2019-05-29T02:41:33.919Z,38.87
2019-05-29T02:44:01.962Z,38.68
2019-05-29T02:46:30.193Z,38.57
2019-05-29T02:48:58.290Z,38.62
2019-05-29T02:51:28.319Z,38.70
2019-05-29T02:53:56.447Z,38.43
2019-05-29T02:56:24.934Z,38.71
2019-05-29T02:58:53.087Z,38.33
2019-05-29T03:01:21.619Z,38.68
2019-05-29T03:03:50.885Z,38.44
2019-05-29T03:06:18.836Z,38.31
2019-05-29T03:08:47.064Z,38.80
2019-05-29T03:11:15.028Z,38.45
2019-05-29T03:13:43.086Z,38.83
2019-05-29T03:16:12.944Z,38.58
2019-05-29T03:18:41.012Z,38.43
2019-05-29T03:21:09.058Z,38.61
2019-05-29T03:23:37.042Z,38.79
2019-05-29T03:26:04.970Z,39.09
2019-05-29T03:28:34.772Z,38.67
2019-05-29T03:31:02.587Z,39.07
2019-05-29T03:33:35.959Z,38.84
2019-05-29T03:36:00.603Z,38.91
2019-05-29T03:38:30.162Z,38.62
2019-05-29T03:40:58.720Z,38.60
2019-05-29T03:43:28.425Z,38.83
2019-05-29T03:45:56.582Z,38.28
2019-05-29T03:48:25.979Z,38.54
2019-05-29T03:50:54.549Z,38.70
2019-05-29T03:53:22.549Z,38.74
2019-05-29T03:55:50.605Z,38.39
2019-05-29T03:58:18.661Z,38.88
2019-05-29T04:00:48.501Z,38.56
2019-05-29T04:03:16.532Z,38.57
2019-05-29T04:05:44.472Z,38.55
2019-05-29T04:08:12.541Z,38.47
2019-05-29T04:10:41.047Z,38.62
2019-05-29T04:13:08.996Z,38.42
2019-05-29T04:15:38.720Z,38.87
2019-05-29T04:18:07.444Z,38.89
2019-05-29T04:20:36.710Z,39.01
2019-05-29T04:23:06.389Z,38.60
2019-05-29T04:25:38.293Z,38.46
2019-05-29T04:28:04.958Z,38.63
2019-05-29T04:30:34.296Z,38.74
2019-05-29T04:33:02.655Z,38.61
2019-05-29T04:35:32.387Z,38.32
2019-05-29T04:38:00.535Z,38.15
2019-05-29T04:40:29.211Z,38.26
2019-05-29T04:42:58.489Z,38.07
2019-05-29T04:45:26.513Z,38.13
2019-05-29T04:47:54.595Z,38.55
2019-05-29T04:50:22.701Z,38.12
2019-05-29T04:52:50.637Z,37.90
2019-05-29T04:55:18.594Z,38.52
2019-05-29T04:57:46.625Z,38.23
2019-05-29T05:00:15.213Z,38.92
2019-05-29T05:02:42.997Z,38.35
2019-05-29T05:05:11.103Z,38.04
2019-05-29T05:07:39.684Z,37.87
2019-05-29T05:10:08.058Z,38.10
2019-05-29T05:12:37.854Z,38.59
2019-05-29T05:15:05.975Z,38.45
2019-05-29T05:17:33.935Z,38.36
2019-05-29T05:20:01.878Z,38.25
2019-05-29T05:22:30.046Z,38.17
2019-05-29T05:24:58.032Z,38.29
2019-05-29T05:27:25.959Z,37.86
2019-05-29T05:29:53.999Z,37.66
2019-05-29T05:32:22.032Z,38.53
2019-05-29T05:34:49.996Z,38.11
2019-05-29T05:37:17.899Z,38.03
2019-05-29T05:39:46.016Z,37.85
2019-05-29T05:42:14.122Z,38.34
2019-05-29T05:44:42.126Z,38.06
2019-05-29T05:47:10.672Z,38.38
2019-05-29T05:49:39.498Z,37.82
2019-05-29T05:52:07.622Z,38.50
2019-05-29T05:54:35.505Z,38.14
2019-05-29T05:57:03.448Z,37.96
2019-05-29T05:59:31.554Z,38.01
2019-05-29T06:01:59.366Z,39.15
2019-05-29T06:04:27.390Z,39.24
2019-05-29T06:06:55.578Z,39.26
2019-05-29T06:09:23.501Z,39.04
2019-05-29T06:11:51.467Z,39.09
2019-05-29T06:14:19.326Z,38.56
2019-05-29T06:16:47.313Z,39.15
2019-05-29T06:19:15.266Z,39.18
2019-05-29T06:21:43.590Z,39.18
2019-05-29T06:24:11.547Z,38.86
2019-05-29T06:26:39.514Z,38.56
2019-05-29T06:29:07.415Z,39.07
2019-05-29T06:31:35.316Z,39.19
2019-05-29T06:34:03.190Z,39.05
2019-05-29T06:36:31.138Z,38.69
2019-05-29T06:38:59.122Z,39.29
2019-05-29T06:41:27.142Z,39.25
2019-05-29T06:43:55.274Z,39.18
2019-05-29T06:46:23.727Z,39.25
2019-05-29T06:48:59.373Z,39.37
2019-05-29T06:51:21.010Z,39.23
2019-05-29T06:53:48.824Z,39.26
2019-05-29T06:56:17.134Z,39.37
2019-05-29T06:58:45.590Z,39.42
2019-05-29T07:01:13.591Z,39.35
2019-05-29T07:03:41.744Z,39.31
2019-05-29T07:06:10.256Z,39.37
2019-05-29T07:08:44.025Z,39.42
2019-05-29T07:11:08.108Z,39.42
2019-05-29T07:13:37.730Z,39.39
2019-05-29T07:16:05.396Z,39.34
2019-05-29T07:18:33.371Z,39.37
2019-05-29T07:21:01.363Z,39.36
2019-05-29T07:23:29.140Z,39.38
2019-05-29T07:25:57.076Z,39.35
2019-05-29T07:28:24.907Z,39.17
2019-05-29T07:31:00.649Z,39.02
2019-05-29T07:33:23.096Z,39.16
2019-05-29T07:35:51.106Z,39.11
2019-05-29T07:38:18.996Z,38.63
2019-05-29T07:40:48.206Z,39.22
2019-05-29T07:43:16.628Z,38.05
2019-05-29T07:45:44.521Z,39.08
2019-05-29T07:48:12.658Z,39.03
2019-05-29T07:50:40.429Z,38.85
2019-05-29T07:53:08.462Z,38.15
2019-05-29T07:55:36.248Z,39.00
2019-05-29T07:58:04.170Z,39.01
2019-05-29T08:00:35.794Z,39.10
2019-05-29T08:03:01.892Z,39.15
2019-05-29T08:05:29.672Z,39.19
2019-05-29T08:07:57.546Z,39.30
2019-05-29T08:10:25.535Z,39.22
2019-05-29T08:12:55.753Z,39.02
2019-05-29T08:15:23.221Z,39.38
2019-05-29T08:17:51.383Z,38.32
2019-05-29T08:20:19.388Z,38.60
2019-05-29T08:22:48.412Z,39.07
2019-05-29T08:25:17.105Z,39.46
2019-05-29T08:27:45.135Z,38.89
2019-05-29T08:30:13.133Z,39.34
2019-05-29T08:32:41.139Z,38.82
2019-05-29T08:35:09.276Z,38.77
2019-05-29T08:37:37.282Z,38.90
2019-05-29T08:40:05.440Z,39.00
2019-05-29T08:42:33.242Z,39.00
2019-05-29T08:45:01.119Z,38.97
2019-05-29T08:47:29.226Z,39.14
2019-05-29T08:50:16.793Z,39.09
2019-05-29T08:52:26.726Z,39.20
2019-05-29T08:55:13.989Z,39.18
2019-05-29T08:57:42.619Z,39.14
2019-05-29T09:00:10.736Z,39.19
2019-05-29T09:02:38.679Z,39.10
2019-05-29T09:05:06.654Z,38.86
2019-05-29T09:07:34.656Z,38.78
2019-05-29T09:10:02.688Z,39.05
2019-05-29T09:12:30.618Z,38.58
2019-05-29T09:14:58.573Z,39.04
2019-05-29T09:17:26.628Z,38.68
2019-05-29T09:19:54.510Z,39.09
2019-05-29T09:22:41.513Z,38.97
2019-05-29T09:25:09.538Z,39.05
2019-05-29T09:27:37.537Z,39.42
2019-05-29T09:32:50.172Z,39.48
2019-05-29T09:35:09.241Z,38.99
2019-05-29T09:37:56.146Z,39.30
2019-05-29T09:40:24.948Z,39.40
2019-05-29T09:42:54.017Z,39.13
2019-05-29T09:45:21.932Z,39.19
2019-05-29T09:47:49.830Z,39.39
2019-05-29T09:50:18.688Z,38.76
2019-05-29T09:52:47.707Z,38.73
2019-05-29T09:55:15.587Z,38.85
2019-05-29T09:57:43.566Z,39.05
2019-05-29T10:00:11.569Z,39.00
2019-05-29T10:02:39.347Z,38.83
2019-05-29T10:05:07.220Z,38.98
2019-05-29T10:07:34.990Z,38.16
2019-05-29T10:10:04.919Z,39.01
2019-05-29T10:12:32.616Z,38.78
2019-05-29T10:15:01.013Z,39.00
2019-05-29T10:20:05.008Z,38.39
2019-05-29T10:22:33.384Z,38.85
2019-05-29T10:25:01.941Z,39.10
2019-05-29T10:27:30.875Z,38.54
2019-05-29T10:29:59.142Z,38.57
2019-05-29T10:32:27.074Z,38.94
2019-05-29T10:34:54.946Z,38.60
2019-05-29T10:37:22.811Z,38.79
2019-05-29T10:40:09.908Z,38.72
2019-05-29T10:42:37.675Z,38.64
2019-05-29T10:48:00.139Z,38.71
2019-05-29T10:50:28.320Z,38.16
2019-05-29T10:52:56.204Z,38.73
2019-05-29T10:55:24.087Z,38.91
2019-05-29T10:57:53.125Z,38.77
2019-05-29T11:00:22.005Z,39.11
2019-05-29T11:02:52.858Z,38.43
2019-05-29T11:05:19.564Z,38.45
2019-05-29T11:07:47.691Z,38.68
2019-05-29T11:12:51.001Z,38.14
2019-05-29T11:15:21.710Z,38.51
2019-05-29T11:23:09.731Z,38.03
2019-05-29T11:25:37.748Z,37.78
2019-05-29T11:28:05.771Z,38.34
2019-05-29T11:30:33.933Z,38.35
2019-05-29T11:33:01.718Z,38.19
2019-05-29T11:35:29.589Z,38.29
2019-05-29T11:37:58.740Z,38.37
2019-05-29T11:40:27.092Z,37.60
2019-05-29T11:42:55.195Z,38.08
2019-05-29T11:48:30.538Z,38.60
2019-05-29T11:51:17.614Z,38.75
2019-05-29T11:53:45.485Z,38.25
2019-05-29T11:56:13.359Z,38.41
2019-05-29T11:58:41.247Z,38.47
2019-05-29T12:01:09.049Z,38.51
2019-05-29T12:03:36.906Z,38.08
2019-05-29T12:06:05.291Z,37.77
2019-05-29T12:08:35.376Z,38.28
2019-05-29T12:11:06.374Z,37.66
2019-05-29T12:13:32.779Z,38.75
2019-05-29T12:16:01.802Z,38.27
2019-05-29T12:18:30.662Z,38.25
2019-05-29T12:20:59.905Z,38.44
2019-05-29T12:23:28.603Z,38.42
2019-05-29T12:26:16.169Z,38.71
2019-05-29T12:28:26.603Z,37.74
2019-05-29T12:30:55.180Z,38.46
2019-05-29T12:33:24.292Z,38.26
2019-05-29T12:35:52.919Z,38.49
2019-05-29T12:38:22.182Z,38.32
2019-05-29T12:40:50.086Z,38.58
2019-05-29T12:43:27.021Z,38.01
2019-05-29T12:45:47.621Z,38.46
2019-05-29T12:48:16.222Z,38.04
2019-05-29T12:50:45.168Z,38.75
2019-05-29T12:53:29.055Z,38.37
2019-05-29T12:55:42.846Z,37.93
2019-05-29T12:58:10.661Z,38.15
2019-05-29T13:00:38.927Z,38.07
2019-05-29T13:03:06.855Z,38.12
2019-05-29T13:05:34.770Z,38.11
2019-05-29T13:08:03.184Z,38.18
2019-05-29T13:10:32.378Z,37.82
2019-05-29T13:13:06.945Z,38.00
2019-05-29T13:15:29.808Z,37.26
2019-05-29T13:18:02.463Z,37.53
2019-05-29T13:20:27.282Z,38.07
2019-05-29T13:22:55.549Z,37.82
2019-05-29T13:25:25.007Z,37.81
2019-05-29T13:27:53.110Z,37.92
2019-05-29T13:30:20.997Z,38.14
2019-05-29T13:32:48.957Z,37.66
2019-05-29T13:35:21.060Z,38.40
2019-05-29T13:40:34.263Z,37.87
2019-05-29T13:43:11.493Z,37.85
2019-05-29T13:45:32.054Z,37.78
2019-05-29T13:48:01.375Z,37.69
2019-05-29T13:50:29.806Z,37.92
2019-05-29T13:52:59.264Z,38.08
2019-05-29T13:55:27.673Z,37.93
2019-05-29T13:57:55.630Z,37.83
2019-05-29T14:00:33.087Z,36.88
2019-05-29T14:02:53.233Z,37.59
2019-05-29T14:05:21.179Z,37.38
2019-05-29T14:07:49.094Z,37.23
2019-05-29T14:10:16.941Z,37.61
2019-05-29T14:12:44.957Z,37.59
2019-05-29T14:15:12.786Z,37.72
2019-05-29T14:17:40.671Z,37.20
2019-05-29T14:20:09.007Z,36.86
2019-05-29T14:22:38.260Z,36.70
2019-05-29T14:25:25.210Z,36.94
2019-05-29T14:27:53.312Z,37.04
2019-05-29T14:30:21.629Z,36.62
2019-05-29T14:32:49.662Z,37.23
2019-05-29T14:35:17.524Z,36.77
2019-05-29T14:37:45.388Z,37.09
2019-05-29T14:43:11.344Z,36.92
2019-05-29T14:45:37.262Z,36.90
2019-05-29T14:48:06.207Z,37.94
2019-05-29T14:50:35.020Z,37.64
2019-05-29T14:53:03.052Z,37.16
2019-05-29T14:58:19.689Z,36.51
2019-05-29T15:00:47.666Z,36.58
2019-05-29T15:03:15.679Z,37.16
2019-05-29T15:05:44.228Z,37.34
2019-05-29T15:08:14.151Z,36.65
2019-05-29T15:10:43.328Z,36.96
2019-05-29T15:13:13.151Z,36.58
2019-05-29T15:15:41.194Z,36.78
2019-05-29T15:18:12.642Z,36.59
2019-05-29T15:23:31.568Z,36.29
2019-05-29T15:25:59.543Z,37.13
2019-05-29T15:28:27.475Z,36.92
2019-05-29T15:30:55.728Z,37.41
2019-05-29T15:33:23.752Z,37.08
2019-05-29T15:35:51.795Z,37.78
2019-05-29T15:38:19.946Z,37.19
2019-05-29T15:40:48.246Z,37.67
2019-05-29T15:43:17.204Z,37.38
2019-05-29T15:45:46.274Z,37.00
2019-05-29T15:48:15.291Z,36.67
2019-05-29T15:50:44.468Z,36.70
2019-05-29T15:53:13.129Z,37.46
2019-05-29T15:55:42.612Z,36.94
2019-05-29T15:58:11.197Z,37.26
2019-05-29T16:00:40.541Z,37.47
2019-05-29T16:03:09.435Z,37.53
2019-05-29T16:05:39.097Z,37.04
2019-05-29T16:08:07.963Z,36.76
2019-05-29T16:10:37.179Z,37.00
2019-05-29T16:13:05.449Z,36.79
2019-05-29T16:15:33.831Z,37.15
2019-05-29T16:18:02.060Z,37.50
2019-05-29T16:20:30.079Z,37.85
2019-05-29T16:25:40.045Z,36.75
2019-05-29T16:30:35.764Z,36.59
2019-05-29T16:33:03.799Z,37.86
2019-05-29T16:35:31.685Z,37.40
2019-05-29T16:37:59.610Z,37.22
2019-05-29T16:40:27.496Z,37.62
2019-05-29T16:42:55.462Z,37.80
2019-05-29T16:45:23.360Z,37.64
2019-05-29T16:47:51.232Z,37.58
2019-05-29T16:50:21.122Z,36.86
2019-05-29T16:52:49.258Z,37.37
2019-05-29T16:55:17.489Z,36.70
2019-05-29T16:57:45.498Z,37.37
2019-05-29T17:00:13.900Z,37.38
2019-05-29T17:05:30.635Z,37.93
2019-05-29T17:07:58.599Z,37.42
2019-05-29T17:10:45.728Z,37.49
2019-05-29T17:13:14.662Z,37.68
2019-05-29T17:16:02.168Z,37.44
2019-05-29T17:18:49.260Z,37.86
2019-05-29T17:21:17.092Z,37.31
2019-05-29T17:23:44.975Z,37.23
2019-05-29T17:26:12.989Z,37.57
2019-05-29T17:28:41.048Z,37.72
2019-05-29T17:31:08.947Z,37.83
2019-05-29T17:33:36.919Z,36.97
2019-05-29T17:36:04.926Z,37.65
2019-05-29T17:41:06.520Z,37.40
2019-05-29T17:43:34.419Z,37.25
2019-05-29T17:46:02.650Z,37.64
2019-05-29T17:48:30.534Z,37.37
2019-05-29T17:51:17.594Z,37.39
2019-05-29T17:53:45.723Z,38.05
2019-05-29T17:56:26.270Z,37.84
2019-05-29T17:59:02.139Z,37.75
2019-05-29T18:01:30.964Z,38.10
2019-05-29T18:04:00.348Z,37.66
2019-05-29T18:06:28.353Z,37.62
2019-05-29T18:08:56.618Z,37.67
2019-05-29T18:11:25.242Z,37.89
2019-05-29T18:14:13.168Z,37.61
2019-05-29T18:16:41.056Z,37.77
2019-05-29T18:19:08.946Z,37.78
2019-05-29T18:21:36.845Z,37.86
2019-05-29T18:24:23.878Z,38.07
2019-05-29T18:26:52.143Z,38.32
2019-05-29T18:29:20.163Z,38.21
2019-05-29T18:31:48.070Z,37.80
2019-05-29T18:34:15.909Z,37.82
2019-05-29T18:36:43.809Z,38.45
2019-05-29T18:39:11.720Z,38.18
2019-05-29T18:41:39.502Z,38.12
2019-05-29T18:44:07.322Z,38.23
2019-05-29T18:46:37.909Z,38.05
2019-05-29T18:49:05.134Z,38.80
2019-05-29T18:51:33.005Z,38.46
2019-05-29T18:54:01.087Z,38.37
2019-05-29T18:56:30.556Z,38.17
2019-05-29T18:58:58.689Z,38.11
2019-05-29T19:01:27.573Z,38.61
2019-05-29T19:03:56.178Z,38.06
2019-05-29T19:06:24.074Z,38.53
2019-05-29T19:08:51.834Z,38.62
2019-05-29T19:11:19.726Z,38.45
2019-05-29T19:13:47.617Z,38.20
2019-05-29T19:16:34.550Z,38.21
2019-05-29T19:19:02.366Z,38.96
2019-05-29T19:21:30.623Z,38.23
2019-05-29T19:24:00.092Z,38.57
2019-05-29T19:26:28.785Z,38.48
2019-05-29T19:31:31.481Z,38.38
2019-05-29T19:33:59.654Z,38.56
2019-05-29T19:36:27.778Z,38.87
2019-05-29T19:38:55.824Z,38.26
2019-05-29T19:41:23.994Z,38.35
2019-05-29T19:43:52.008Z,39.34
2019-05-29T19:46:20.078Z,38.27
2019-05-29T19:48:47.986Z,38.87
2019-05-29T19:51:15.799Z,38.87
2019-05-29T19:53:43.808Z,38.94
2019-05-29T19:56:11.731Z,38.54
2019-05-29T19:58:39.708Z,38.29
2019-05-29T20:01:07.691Z,39.21
2019-05-29T20:03:36.662Z,39.08
2019-05-29T20:06:05.457Z,39.18
2019-05-29T20:08:36.263Z,38.31
2019-05-29T20:11:03.112Z,38.71
2019-05-29T20:13:31.701Z,39.26
2019-05-29T20:18:34.158Z,38.87
2019-05-29T20:21:03.516Z,39.12
2019-05-29T20:26:05.125Z,38.98
2019-05-29T20:28:34.175Z,39.17
2019-05-29T20:31:02.811Z,39.27
2019-05-29T20:33:32.388Z,39.31
2019-05-29T20:36:00.983Z,38.32
2019-05-29T20:38:29.127Z,39.27
2019-05-29T20:40:57.256Z,39.16
2019-05-29T20:43:25.480Z,39.27
2019-05-29T20:46:12.567Z,39.37
2019-05-29T20:48:40.583Z,39.07
2019-05-29T20:51:08.622Z,39.10
2019-05-29T20:53:37.473Z,39.28
2019-05-29T20:56:06.501Z,39.00
2019-05-29T20:58:35.606Z,39.17
2019-05-29T21:01:03.835Z,39.28
2019-05-29T21:03:32.281Z,39.21
2019-05-29T21:06:00.464Z,39.16
2019-05-29T21:08:28.632Z,39.49
2019-05-29T21:10:56.698Z,39.43
2019-05-29T21:13:25.615Z,39.07
2019-05-29T21:16:12.821Z,39.52
2019-05-29T21:18:42.200Z,39.15
2019-05-29T21:21:10.734Z,39.50
2019-05-29T21:23:40.364Z,39.23
2019-05-29T21:26:08.963Z,39.16
2019-05-29T21:28:40.742Z,39.34
2019-05-29T21:31:25.596Z,39.36
2019-05-29T21:33:53.725Z,39.36
2019-05-29T21:36:21.781Z,39.60
2019-05-29T21:38:49.899Z,39.31
2019-05-29T21:41:17.997Z,39.17
2019-05-29T21:43:47.002Z,39.35
2019-05-29T21:46:15.224Z,39.28
2019-05-29T21:48:43.446Z,39.38
2019-05-29T21:51:30.738Z,39.17
2019-05-29T21:53:58.830Z,39.50
2019-05-29T21:56:27.019Z,39.58
2019-05-29T21:59:03.397Z,39.49
2019-05-29T22:01:25.287Z,39.57
2019-05-29T22:06:40.970Z,39.60
2019-05-29T22:12:04.970Z,39.57
2019-05-29T22:14:33.095Z,39.48
2019-05-29T22:17:01.233Z,39.61
2019-05-29T22:19:31.164Z,39.12
2019-05-29T22:21:59.273Z,39.37
2019-05-29T22:24:27.347Z,39.48
2019-05-29T22:26:55.379Z,39.54
2019-05-29T22:29:23.300Z,39.18
2019-05-29T22:31:51.451Z,39.53
2019-05-29T22:34:19.564Z,39.59
2019-05-29T22:37:06.667Z,39.63
2019-05-29T22:39:34.885Z,39.30
2019-05-29T22:42:02.891Z,39.44
2019-05-29T22:44:31.099Z,39.69
2019-05-29T22:46:59.871Z,39.62
2019-05-29T22:49:28.815Z,39.49
2019-05-29T22:51:57.827Z,39.57
2019-05-29T22:54:27.441Z,39.63
2019-05-29T22:56:55.852Z,39.71
2019-05-29T22:59:31.990Z,39.67
2019-05-29T23:01:56.370Z,39.75
2019-05-29T23:04:24.881Z,39.61
2019-05-29T23:06:54.117Z,39.30
2019-05-29T23:09:22.754Z,39.36
2019-05-29T23:11:50.716Z,39.51
2019-05-29T23:14:18.767Z,38.90
2019-05-29T23:16:46.737Z,39.42
2019-05-29T23:19:14.851Z,39.64
2019-05-29T23:21:42.916Z,39.45
2019-05-29T23:24:29.910Z,39.63
2019-05-29T23:26:58.771Z,39.25
2019-05-29T23:29:29.532Z,39.36
2019-05-29T23:31:58.921Z,39.55
2019-05-29T23:34:27.712Z,39.25
2019-05-29T23:36:57.030Z,39.65
2019-05-29T23:39:25.472Z,39.62
2019-05-29T23:41:53.405Z,39.28
2019-05-29T23:44:21.501Z,39.49
2019-05-29T23:46:49.538Z,39.72
2019-05-29T23:49:17.712Z,39.72
2019-05-29T23:51:46.048Z,39.63
2019-05-29T23:54:13.994Z,39.61
2019-05-29T23:57:01.980Z,39.51
2019-05-29T23:59:30.742Z,39.19
